sensor_id;sensor_type;location;lat;lon;timestamp;P1;durP1;ratioP1;P2;durP2;ratioP2
18048;SDS011;9149;47.002;8.604;2022-12-29T00:01:09;1.20;;;1.10;;
18048;SDS011;9149;47.002;8.604;2022-12-29T00:03:36;1.27;;;1.10;;
18048;SDS011;9149;47.002;8.604;2022-12-29T00:06:05;3.30;;;1.40;;
18048;SDS011;9149;47.002;8.604;2022-12-29T00:08:32;0.90;;;0.90;;
18048;SDS011;9149;47.002;8.604;2022-12-29T00:11:07;1.10;;;1.10;;
18048;SDS011;9149;47.002;8.604;2022-12-29T00:13:36;1.30;;;1.10;;
18048;SDS011;9149;47.002;8.604;2022-12-29T00:16:14;1.07;;;1.00;;
18048;SDS011;9149;47.002;8.604;2022-12-29T00:18:42;0.90;;;0.90;;
18048;SDS011;9149;47.002;8.604;2022-12-29T00:21:10;0.90;;;0.90;;
18048;SDS011;9149;47.002;8.604;2022-12-29T00:23:50;1.20;;;1.10;;
18048;SDS011;9149;47.002;8.604;2022-12-29T00:26:28;0.80;;;0.80;;
18048;SDS011;9149;47.002;8.604;2022-12-29T00:29:06;0.90;;;0.90;;
18048;SDS011;9149;47.002;8.604;2022-12-29T00:31:44;1.00;;;0.90;;
18048;SDS011;9149;47.002;8.604;2022-12-29T00:34:22;0.83;;;0.83;;
18048;SDS011;9149;47.002;8.604;2022-12-29T00:36:59;0.70;;;0.70;;
18048;SDS011;9149;47.002;8.604;2022-12-29T00:39:27;0.80;;;0.80;;
18048;SDS011;9149;47.002;8.604;2022-12-29T00:42:04;2.67;;;1.03;;
18048;SDS011;9149;47.002;8.604;2022-12-29T00:44:44;0.80;;;0.80;;
18048;SDS011;9149;47.002;8.604;2022-12-29T00:47:13;0.80;;;0.80;;
18048;SDS011;9149;47.002;8.604;2022-12-29T00:49:41;1.00;;;1.00;;
18048;SDS011;9149;47.002;8.604;2022-12-29T00:52:26;0.90;;;0.90;;
18048;SDS011;9149;47.002;8.604;2022-12-29T00:54:53;0.80;;;0.80;;
18048;SDS011;9149;47.002;8.604;2022-12-29T00:57:21;0.80;;;0.80;;
18048;SDS011;9149;47.002;8.604;2022-12-29T00:59:50;0.87;;;0.80;;
18048;SDS011;9149;47.002;8.604;2022-12-29T01:02:17;0.90;;;0.90;;
18048;SDS011;9149;47.002;8.604;2022-12-29T01:04:46;0.80;;;0.80;;
18048;SDS011;9149;47.002;8.604;2022-12-29T01:07:15;1.13;;;1.03;;
18048;SDS011;9149;47.002;8.604;2022-12-29T01:09:44;1.10;;;1.00;;
18048;SDS011;9149;47.002;8.604;2022-12-29T01:12:21;1.10;;;1.00;;
18048;SDS011;9149;47.002;8.604;2022-12-29T01:15:04;0.80;;;0.80;;
18048;SDS011;9149;47.002;8.604;2022-12-29T01:17:32;0.90;;;0.87;;
18048;SDS011;9149;47.002;8.604;2022-12-29T01:20:00;0.93;;;0.83;;
18048;SDS011;9149;47.002;8.604;2022-12-29T01:22:28;1.03;;;0.80;;
18048;SDS011;9149;47.002;8.604;2022-12-29T01:24:56;1.57;;;0.90;;
18048;SDS011;9149;47.002;8.604;2022-12-29T01:27:23;1.57;;;1.00;;
18048;SDS011;9149;47.002;8.604;2022-12-29T01:29:51;0.80;;;0.80;;
18048;SDS011;9149;47.002;8.604;2022-12-29T01:32:20;0.77;;;0.77;;
18048;SDS011;9149;47.002;8.604;2022-12-29T01:34:48;4.13;;;1.00;;
18048;SDS011;9149;47.002;8.604;2022-12-29T01:37:15;1.10;;;1.00;;
18048;SDS011;9149;47.002;8.604;2022-12-29T01:39:43;0.87;;;0.87;;
18048;SDS011;9149;47.002;8.604;2022-12-29T01:42:12;0.90;;;0.90;;
18048;SDS011;9149;47.002;8.604;2022-12-29T01:44:47;1.10;;;1.10;;
18048;SDS011;9149;47.002;8.604;2022-12-29T01:47:17;1.03;;;0.90;;
18048;SDS011;9149;47.002;8.604;2022-12-29T01:49:47;1.60;;;1.00;;
18048;SDS011;9149;47.002;8.604;2022-12-29T01:52:15;0.90;;;0.90;;
18048;SDS011;9149;47.002;8.604;2022-12-29T01:54:45;0.90;;;0.90;;
18048;SDS011;9149;47.002;8.604;2022-12-29T01:57:15;0.90;;;0.90;;
18048;SDS011;9149;47.002;8.604;2022-12-29T01:59:45;0.90;;;0.90;;
18048;SDS011;9149;47.002;8.604;2022-12-29T02:02:14;0.97;;;0.90;;
18048;SDS011;9149;47.002;8.604;2022-12-29T02:04:43;0.80;;;0.80;;
18048;SDS011;9149;47.002;8.604;2022-12-29T02:07:18;1.33;;;1.10;;
18048;SDS011;9149;47.002;8.604;2022-12-29T02:09:46;1.10;;;1.00;;
18048;SDS011;9149;47.002;8.604;2022-12-29T02:12:15;1.00;;;0.90;;
18048;SDS011;9149;47.002;8.604;2022-12-29T02:14:43;0.90;;;0.90;;
18048;SDS011;9149;47.002;8.604;2022-12-29T02:17:13;0.70;;;0.70;;
18048;SDS011;9149;47.002;8.604;2022-12-29T02:19:51;1.17;;;0.90;;
18048;SDS011;9149;47.002;8.604;2022-12-29T02:22:26;1.13;;;1.03;;
18048;SDS011;9149;47.002;8.604;2022-12-29T02:27:36;0.70;;;0.70;;
18048;SDS011;9149;47.002;8.604;2022-12-29T02:30:12;1.10;;;1.00;;
18048;SDS011;9149;47.002;8.604;2022-12-29T02:32:48;0.80;;;0.80;;
18048;SDS011;9149;47.002;8.604;2022-12-29T02:35:19;0.90;;;0.90;;
18048;SDS011;9149;47.002;8.604;2022-12-29T02:38:10;1.30;;;1.10;;
18048;SDS011;9149;47.002;8.604;2022-12-29T02:40:40;0.80;;;0.80;;
18048;SDS011;9149;47.002;8.604;2022-12-29T02:43:14;1.10;;;1.00;;
18048;SDS011;9149;47.002;8.604;2022-12-29T02:45:47;0.93;;;0.90;;
18048;SDS011;9149;47.002;8.604;2022-12-29T02:48:22;0.60;;;0.60;;
18048;SDS011;9149;47.002;8.604;2022-12-29T02:50:53;1.17;;;1.07;;
18048;SDS011;9149;47.002;8.604;2022-12-29T02:53:25;1.63;;;0.80;;
18048;SDS011;9149;47.002;8.604;2022-12-29T02:56:07;1.00;;;1.00;;
18048;SDS011;9149;47.002;8.604;2022-12-29T02:58:35;1.10;;;1.10;;
18048;SDS011;9149;47.002;8.604;2022-12-29T03:01:08;0.73;;;0.73;;
18048;SDS011;9149;47.002;8.604;2022-12-29T03:03:43;0.80;;;0.80;;
18048;SDS011;9149;47.002;8.604;2022-12-29T03:06:17;0.90;;;0.90;;
18048;SDS011;9149;47.002;8.604;2022-12-29T03:08:48;2.30;;;1.10;;
18048;SDS011;9149;47.002;8.604;2022-12-29T03:11:18;0.80;;;0.80;;
18048;SDS011;9149;47.002;8.604;2022-12-29T03:13:56;0.90;;;0.90;;
18048;SDS011;9149;47.002;8.604;2022-12-29T03:16:35;1.13;;;0.90;;
18048;SDS011;9149;47.002;8.604;2022-12-29T03:19:07;0.90;;;0.90;;
18048;SDS011;9149;47.002;8.604;2022-12-29T03:21:36;1.07;;;0.97;;
18048;SDS011;9149;47.002;8.604;2022-12-29T03:24:17;0.90;;;0.90;;
18048;SDS011;9149;47.002;8.604;2022-12-29T03:29:39;1.10;;;1.00;;
18048;SDS011;9149;47.002;8.604;2022-12-29T03:32:09;0.90;;;0.90;;
18048;SDS011;9149;47.002;8.604;2022-12-29T03:34:41;1.07;;;0.97;;
18048;SDS011;9149;47.002;8.604;2022-12-29T03:37:10;0.90;;;0.90;;
18048;SDS011;9149;47.002;8.604;2022-12-29T03:39:38;1.43;;;1.10;;
18048;SDS011;9149;47.002;8.604;2022-12-29T03:42:07;0.90;;;0.90;;
18048;SDS011;9149;47.002;8.604;2022-12-29T03:44:38;0.90;;;0.90;;
18048;SDS011;9149;47.002;8.604;2022-12-29T03:47:09;0.90;;;0.90;;
18048;SDS011;9149;47.002;8.604;2022-12-29T03:49:37;1.00;;;1.00;;
18048;SDS011;9149;47.002;8.604;2022-12-29T03:52:06;1.23;;;1.13;;
18048;SDS011;9149;47.002;8.604;2022-12-29T03:54:40;1.03;;;1.00;;
18048;SDS011;9149;47.002;8.604;2022-12-29T03:57:08;1.00;;;1.00;;
18048;SDS011;9149;47.002;8.604;2022-12-29T03:59:46;0.90;;;0.90;;
18048;SDS011;9149;47.002;8.604;2022-12-29T04:02:13;1.10;;;1.00;;
18048;SDS011;9149;47.002;8.604;2022-12-29T04:04:44;5.10;;;1.10;;
18048;SDS011;9149;47.002;8.604;2022-12-29T04:07:13;1.17;;;1.13;;
18048;SDS011;9149;47.002;8.604;2022-12-29T04:09:41;0.90;;;0.90;;
18048;SDS011;9149;47.002;8.604;2022-12-29T04:12:14;0.90;;;0.90;;
18048;SDS011;9149;47.002;8.604;2022-12-29T04:14:42;0.80;;;0.80;;
18048;SDS011;9149;47.002;8.604;2022-12-29T04:17:10;1.20;;;1.10;;
18048;SDS011;9149;47.002;8.604;2022-12-29T04:19:39;1.00;;;1.00;;
18048;SDS011;9149;47.002;8.604;2022-12-29T04:22:07;0.90;;;0.90;;
18048;SDS011;9149;47.002;8.604;2022-12-29T04:24:36;0.90;;;0.90;;
18048;SDS011;9149;47.002;8.604;2022-12-29T04:27:04;0.80;;;0.80;;
18048;SDS011;9149;47.002;8.604;2022-12-29T04:29:44;1.00;;;1.00;;
18048;SDS011;9149;47.002;8.604;2022-12-29T04:32:22;1.50;;;1.00;;
18048;SDS011;9149;47.002;8.604;2022-12-29T04:34:52;2.17;;;1.40;;
18048;SDS011;9149;47.002;8.604;2022-12-29T04:37:19;0.80;;;0.80;;
18048;SDS011;9149;47.002;8.604;2022-12-29T04:39:48;1.10;;;1.00;;
18048;SDS011;9149;47.002;8.604;2022-12-29T04:42:16;1.00;;;1.00;;
18048;SDS011;9149;47.002;8.604;2022-12-29T04:44:44;0.90;;;0.90;;
18048;SDS011;9149;47.002;8.604;2022-12-29T04:47:19;1.20;;;1.00;;
18048;SDS011;9149;47.002;8.604;2022-12-29T04:50:01;0.90;;;0.90;;
18048;SDS011;9149;47.002;8.604;2022-12-29T04:52:38;11.10;;;1.20;;
18048;SDS011;9149;47.002;8.604;2022-12-29T04:55:09;1.20;;;1.10;;
18048;SDS011;9149;47.002;8.604;2022-12-29T04:57:39;2.73;;;1.10;;
18048;SDS011;9149;47.002;8.604;2022-12-29T05:00:08;0.90;;;0.90;;
18048;SDS011;9149;47.002;8.604;2022-12-29T05:02:36;1.40;;;1.10;;
18048;SDS011;9149;47.002;8.604;2022-12-29T05:05:05;1.77;;;1.20;;
18048;SDS011;9149;47.002;8.604;2022-12-29T05:07:37;2.53;;;1.27;;
18048;SDS011;9149;47.002;8.604;2022-12-29T05:10:05;1.87;;;1.53;;
18048;SDS011;9149;47.002;8.604;2022-12-29T05:12:35;3.27;;;1.00;;
18048;SDS011;9149;47.002;8.604;2022-12-29T05:15:03;4.20;;;1.40;;
18048;SDS011;9149;47.002;8.604;2022-12-29T05:17:31;2.60;;;1.40;;
18048;SDS011;9149;47.002;8.604;2022-12-29T05:19:59;2.97;;;1.57;;
18048;SDS011;9149;47.002;8.604;2022-12-29T05:22:27;1.97;;;1.20;;
18048;SDS011;9149;47.002;8.604;2022-12-29T05:24:55;1.43;;;1.13;;
18048;SDS011;9149;47.002;8.604;2022-12-29T05:27:23;1.63;;;0.93;;
18048;SDS011;9149;47.002;8.604;2022-12-29T05:30:01;1.43;;;1.00;;
18048;SDS011;9149;47.002;8.604;2022-12-29T05:32:29;1.50;;;0.93;;
18048;SDS011;9149;47.002;8.604;2022-12-29T05:34:56;1.40;;;1.13;;
18048;SDS011;9149;47.002;8.604;2022-12-29T05:37:24;1.20;;;1.00;;
18048;SDS011;9149;47.002;8.604;2022-12-29T05:39:52;1.43;;;1.10;;
18048;SDS011;9149;47.002;8.604;2022-12-29T05:42:19;1.53;;;0.93;;
18048;SDS011;9149;47.002;8.604;2022-12-29T05:44:52;1.20;;;1.10;;
18048;SDS011;9149;47.002;8.604;2022-12-29T05:47:37;1.90;;;1.20;;
18048;SDS011;9149;47.002;8.604;2022-12-29T05:50:24;1.10;;;1.00;;
18048;SDS011;9149;47.002;8.604;2022-12-29T05:53:04;2.83;;;1.60;;
18048;SDS011;9149;47.002;8.604;2022-12-29T05:55:32;4.13;;;1.63;;
18048;SDS011;9149;47.002;8.604;2022-12-29T05:58:00;2.40;;;1.33;;
18048;SDS011;9149;47.002;8.604;2022-12-29T06:00:28;1.20;;;1.10;;
18048;SDS011;9149;47.002;8.604;2022-12-29T06:02:57;1.30;;;1.20;;
18048;SDS011;9149;47.002;8.604;2022-12-29T06:05:25;2.13;;;1.20;;
18048;SDS011;9149;47.002;8.604;2022-12-29T06:07:53;1.37;;;1.10;;
18048;SDS011;9149;47.002;8.604;2022-12-29T06:10:21;0.83;;;0.83;;
18048;SDS011;9149;47.002;8.604;2022-12-29T06:12:54;1.00;;;1.00;;
18048;SDS011;9149;47.002;8.604;2022-12-29T06:15:22;1.73;;;1.47;;
18048;SDS011;9149;47.002;8.604;2022-12-29T06:17:50;3.70;;;1.20;;
18048;SDS011;9149;47.002;8.604;2022-12-29T06:20:19;1.47;;;1.20;;
18048;SDS011;9149;47.002;8.604;2022-12-29T06:22:46;1.10;;;1.00;;
18048;SDS011;9149;47.002;8.604;2022-12-29T06:25:14;2.37;;;1.30;;
18048;SDS011;9149;47.002;8.604;2022-12-29T06:27:43;4.40;;;1.30;;
18048;SDS011;9149;47.002;8.604;2022-12-29T06:30:11;1.30;;;1.07;;
18048;SDS011;9149;47.002;8.604;2022-12-29T06:32:40;2.17;;;1.30;;
18048;SDS011;9149;47.002;8.604;2022-12-29T06:35:10;1.27;;;1.07;;
18048;SDS011;9149;47.002;8.604;2022-12-29T06:37:44;1.73;;;1.30;;
18048;SDS011;9149;47.002;8.604;2022-12-29T06:40:12;1.43;;;1.23;;
18048;SDS011;9149;47.002;8.604;2022-12-29T06:43:00;1.57;;;1.40;;
18048;SDS011;9149;47.002;8.604;2022-12-29T06:45:37;1.80;;;1.23;;
18048;SDS011;9149;47.002;8.604;2022-12-29T06:48:06;1.20;;;1.10;;
18048;SDS011;9149;47.002;8.604;2022-12-29T06:50:33;1.53;;;1.43;;
18048;SDS011;9149;47.002;8.604;2022-12-29T06:53:02;1.63;;;1.40;;
18048;SDS011;9149;47.002;8.604;2022-12-29T06:55:30;1.37;;;1.20;;
18048;SDS011;9149;47.002;8.604;2022-12-29T06:57:58;1.90;;;1.30;;
18048;SDS011;9149;47.002;8.604;2022-12-29T07:00:27;2.80;;;1.30;;
18048;SDS011;9149;47.002;8.604;2022-12-29T07:02:55;1.40;;;1.30;;
18048;SDS011;9149;47.002;8.604;2022-12-29T07:05:23;3.17;;;1.90;;
18048;SDS011;9149;47.002;8.604;2022-12-29T07:07:51;2.30;;;1.37;;
18048;SDS011;9149;47.002;8.604;2022-12-29T07:10:20;3.70;;;1.53;;
18048;SDS011;9149;47.002;8.604;2022-12-29T07:12:48;13.23;;;3.60;;
18048;SDS011;9149;47.002;8.604;2022-12-29T07:15:15;4.23;;;2.00;;
18048;SDS011;9149;47.002;8.604;2022-12-29T07:17:43;3.10;;;1.67;;
18048;SDS011;9149;47.002;8.604;2022-12-29T07:20:11;4.60;;;1.90;;
18048;SDS011;9149;47.002;8.604;2022-12-29T07:22:38;5.70;;;2.00;;
18048;SDS011;9149;47.002;8.604;2022-12-29T07:25:06;3.17;;;2.10;;
18048;SDS011;9149;47.002;8.604;2022-12-29T07:27:35;1.90;;;1.63;;
18048;SDS011;9149;47.002;8.604;2022-12-29T07:30:03;3.50;;;1.87;;
18048;SDS011;9149;47.002;8.604;2022-12-29T07:32:32;2.33;;;1.70;;
18048;SDS011;9149;47.002;8.604;2022-12-29T07:35:00;6.17;;;2.10;;
18048;SDS011;9149;47.002;8.604;2022-12-29T07:37:27;5.90;;;2.60;;
18048;SDS011;9149;47.002;8.604;2022-12-29T07:39:55;3.50;;;1.97;;
18048;SDS011;9149;47.002;8.604;2022-12-29T07:42:23;2.83;;;1.73;;
18048;SDS011;9149;47.002;8.604;2022-12-29T07:44:52;2.83;;;1.70;;
18048;SDS011;9149;47.002;8.604;2022-12-29T07:47:25;3.83;;;1.83;;
18048;SDS011;9149;47.002;8.604;2022-12-29T07:49:53;2.83;;;1.87;;
18048;SDS011;9149;47.002;8.604;2022-12-29T07:52:20;4.57;;;1.90;;
18048;SDS011;9149;47.002;8.604;2022-12-29T07:54:48;6.90;;;1.80;;
18048;SDS011;9149;47.002;8.604;2022-12-29T07:57:16;1.93;;;1.47;;
18048;SDS011;9149;47.002;8.604;2022-12-29T07:59:43;2.67;;;1.70;;
18048;SDS011;9149;47.002;8.604;2022-12-29T08:02:12;4.90;;;2.03;;
18048;SDS011;9149;47.002;8.604;2022-12-29T08:04:40;5.27;;;1.40;;
18048;SDS011;9149;47.002;8.604;2022-12-29T08:07:08;2.50;;;1.93;;
18048;SDS011;9149;47.002;8.604;2022-12-29T08:09:35;1.87;;;1.70;;
18048;SDS011;9149;47.002;8.604;2022-12-29T08:12:03;4.47;;;1.63;;
18048;SDS011;9149;47.002;8.604;2022-12-29T08:14:31;1.20;;;1.10;;
18048;SDS011;9149;47.002;8.604;2022-12-29T08:16:59;1.37;;;1.10;;
18048;SDS011;9149;47.002;8.604;2022-12-29T08:19:27;1.10;;;1.00;;
18048;SDS011;9149;47.002;8.604;2022-12-29T08:21:55;1.10;;;1.00;;
18048;SDS011;9149;47.002;8.604;2022-12-29T08:24:23;1.40;;;1.10;;
18048;SDS011;9149;47.002;8.604;2022-12-29T08:26:51;1.07;;;0.97;;
18048;SDS011;9149;47.002;8.604;2022-12-29T08:29:18;1.13;;;1.00;;
18048;SDS011;9149;47.002;8.604;2022-12-29T08:31:47;1.37;;;1.17;;
18048;SDS011;9149;47.002;8.604;2022-12-29T08:34:15;1.50;;;1.20;;
18048;SDS011;9149;47.002;8.604;2022-12-29T08:36:44;3.30;;;1.20;;
18048;SDS011;9149;47.002;8.604;2022-12-29T08:39:12;1.17;;;0.90;;
18048;SDS011;9149;47.002;8.604;2022-12-29T08:41:40;1.80;;;1.17;;
18048;SDS011;9149;47.002;8.604;2022-12-29T08:44:07;0.97;;;0.90;;
18048;SDS011;9149;47.002;8.604;2022-12-29T08:46:35;0.90;;;0.83;;
18048;SDS011;9149;47.002;8.604;2022-12-29T08:49:03;0.90;;;0.90;;
18048;SDS011;9149;47.002;8.604;2022-12-29T08:51:31;0.90;;;0.80;;
18048;SDS011;9149;47.002;8.604;2022-12-29T08:54:00;0.70;;;0.70;;
18048;SDS011;9149;47.002;8.604;2022-12-29T08:56:27;1.10;;;1.00;;
18048;SDS011;9149;47.002;8.604;2022-12-29T08:58:56;1.20;;;1.10;;
18048;SDS011;9149;47.002;8.604;2022-12-29T09:01:27;0.90;;;0.90;;
18048;SDS011;9149;47.002;8.604;2022-12-29T09:03:56;1.20;;;1.10;;
18048;SDS011;9149;47.002;8.604;2022-12-29T09:06:43;1.10;;;0.97;;
18048;SDS011;9149;47.002;8.604;2022-12-29T09:09:13;1.43;;;1.17;;
18048;SDS011;9149;47.002;8.604;2022-12-29T09:11:40;1.83;;;1.10;;
18048;SDS011;9149;47.002;8.604;2022-12-29T09:14:08;2.07;;;1.17;;
18048;SDS011;9149;47.002;8.604;2022-12-29T09:16:36;1.33;;;1.10;;
18048;SDS011;9149;47.002;8.604;2022-12-29T09:19:04;2.03;;;1.40;;
18048;SDS011;9149;47.002;8.604;2022-12-29T09:21:31;1.10;;;1.00;;
18048;SDS011;9149;47.002;8.604;2022-12-29T09:23:59;1.77;;;1.00;;
18048;SDS011;9149;47.002;8.604;2022-12-29T09:26:28;1.83;;;0.90;;
18048;SDS011;9149;47.002;8.604;2022-12-29T09:28:56;4.63;;;1.60;;
18048;SDS011;9149;47.002;8.604;2022-12-29T09:31:23;1.17;;;1.03;;
18048;SDS011;9149;47.002;8.604;2022-12-29T09:33:52;1.60;;;1.40;;
18048;SDS011;9149;47.002;8.604;2022-12-29T09:36:20;8.47;;;1.80;;
18048;SDS011;9149;47.002;8.604;2022-12-29T09:38:48;2.67;;;1.50;;
18048;SDS011;9149;47.002;8.604;2022-12-29T09:41:18;1.73;;;1.40;;
18048;SDS011;9149;47.002;8.604;2022-12-29T09:43:54;3.80;;;1.47;;
18048;SDS011;9149;47.002;8.604;2022-12-29T09:46:27;4.50;;;1.57;;
18048;SDS011;9149;47.002;8.604;2022-12-29T09:48:57;2.40;;;1.50;;
18048;SDS011;9149;47.002;8.604;2022-12-29T09:51:28;3.25;;;1.65;;
18048;SDS011;9149;47.002;8.604;2022-12-29T09:53:56;3.30;;;1.60;;
18048;SDS011;9149;47.002;8.604;2022-12-29T09:56:24;1.70;;;1.27;;
18048;SDS011;9149;47.002;8.604;2022-12-29T09:58:54;3.38;;;1.52;;
18048;SDS011;9149;47.002;8.604;2022-12-29T10:01:26;1.92;;;1.50;;
18048;SDS011;9149;47.002;8.604;2022-12-29T10:03:55;4.38;;;1.70;;
18048;SDS011;9149;47.002;8.604;2022-12-29T10:06:24;3.30;;;1.67;;
18048;SDS011;9149;47.002;8.604;2022-12-29T10:08:55;2.03;;;1.42;;
18048;SDS011;9149;47.002;8.604;2022-12-29T10:11:29;1.55;;;1.02;;
18048;SDS011;9149;47.002;8.604;2022-12-29T10:14:05;2.97;;;1.17;;
18048;SDS011;9149;47.002;8.604;2022-12-29T10:16:43;2.10;;;1.00;;
18048;SDS011;9149;47.002;8.604;2022-12-29T10:19:19;1.52;;;0.90;;
18048;SDS011;9149;47.002;8.604;2022-12-29T10:22:00;4.55;;;1.80;;
18048;SDS011;9149;47.002;8.604;2022-12-29T10:24:31;3.53;;;2.13;;
18048;SDS011;9149;47.002;8.604;2022-12-29T10:27:00;4.18;;;1.70;;
18048;SDS011;9149;47.002;8.604;2022-12-29T10:29:29;3.10;;;1.80;;
18048;SDS011;9149;47.002;8.604;2022-12-29T10:32:00;3.95;;;2.00;;
18048;SDS011;9149;47.002;8.604;2022-12-29T10:34:30;4.13;;;1.80;;
18048;SDS011;9149;47.002;8.604;2022-12-29T10:37:00;4.47;;;2.00;;
18048;SDS011;9149;47.002;8.604;2022-12-29T10:39:30;3.22;;;1.80;;
18048;SDS011;9149;47.002;8.604;2022-12-29T10:42:05;6.22;;;2.00;;
18048;SDS011;9149;47.002;8.604;2022-12-29T10:44:37;2.05;;;1.42;;
18048;SDS011;9149;47.002;8.604;2022-12-29T10:47:07;4.13;;;3.20;;
18048;SDS011;9149;47.002;8.604;2022-12-29T10:49:39;3.03;;;1.70;;
18048;SDS011;9149;47.002;8.604;2022-12-29T10:52:08;7.10;;;1.80;;
18048;SDS011;9149;47.002;8.604;2022-12-29T10:54:37;6.60;;;1.92;;
18048;SDS011;9149;47.002;8.604;2022-12-29T10:59:53;4.35;;;1.45;;
18048;SDS011;9149;47.002;8.604;2022-12-29T11:02:25;4.20;;;1.80;;
18048;SDS011;9149;47.002;8.604;2022-12-29T11:05:00;2.70;;;1.60;;
18048;SDS011;9149;47.002;8.604;2022-12-29T11:07:30;3.45;;;1.58;;
18048;SDS011;9149;47.002;8.604;2022-12-29T11:12:40;2.72;;;1.45;;
18048;SDS011;9149;47.002;8.604;2022-12-29T11:15:14;2.20;;;1.30;;
18048;SDS011;9149;47.002;8.604;2022-12-29T11:17:43;2.03;;;1.40;;
18048;SDS011;9149;47.002;8.604;2022-12-29T11:20:26;2.60;;;1.40;;
18048;SDS011;9149;47.002;8.604;2022-12-29T11:22:54;4.05;;;1.52;;
18048;SDS011;9149;47.002;8.604;2022-12-29T11:25:22;3.42;;;1.52;;
18048;SDS011;9149;47.002;8.604;2022-12-29T11:27:58;1.15;;;1.02;;
18048;SDS011;9149;47.002;8.604;2022-12-29T11:30:29;2.85;;;1.20;;
18048;SDS011;9149;47.002;8.604;2022-12-29T11:32:57;2.95;;;1.23;;
18048;SDS011;9149;47.002;8.604;2022-12-29T11:35:34;2.95;;;1.50;;
18048;SDS011;9149;47.002;8.604;2022-12-29T11:38:06;4.50;;;1.70;;
18048;SDS011;9149;47.002;8.604;2022-12-29T11:43:30;2.92;;;1.60;;
18048;SDS011;9149;47.002;8.604;2022-12-29T11:46:01;2.88;;;1.70;;
18048;SDS011;9149;47.002;8.604;2022-12-29T11:48:31;2.03;;;1.30;;
18048;SDS011;9149;47.002;8.604;2022-12-29T11:51:00;2.25;;;1.73;;
18048;SDS011;9149;47.002;8.604;2022-12-29T11:53:31;1.92;;;1.23;;
18048;SDS011;9149;47.002;8.604;2022-12-29T11:56:00;3.92;;;1.15;;
18048;SDS011;9149;47.002;8.604;2022-12-29T11:58:30;1.65;;;1.10;;
18048;SDS011;9149;47.002;8.604;2022-12-29T12:00:59;1.73;;;1.40;;
18048;SDS011;9149;47.002;8.604;2022-12-29T12:03:29;2.08;;;1.20;;
18048;SDS011;9149;47.002;8.604;2022-12-29T12:05:58;2.50;;;1.23;;
18048;SDS011;9149;47.002;8.604;2022-12-29T12:08:30;1.48;;;1.20;;
18048;SDS011;9149;47.002;8.604;2022-12-29T12:11:01;1.65;;;1.20;;
18048;SDS011;9149;47.002;8.604;2022-12-29T12:13:32;1.40;;;1.23;;
18048;SDS011;9149;47.002;8.604;2022-12-29T12:16:02;2.78;;;1.30;;
18048;SDS011;9149;47.002;8.604;2022-12-29T12:18:34;1.50;;;1.10;;
18048;SDS011;9149;47.002;8.604;2022-12-29T12:21:05;2.65;;;1.20;;
18048;SDS011;9149;47.002;8.604;2022-12-29T12:23:36;1.30;;;1.20;;
18048;SDS011;9149;47.002;8.604;2022-12-29T12:26:09;1.83;;;1.33;;
18048;SDS011;9149;47.002;8.604;2022-12-29T12:28:40;2.05;;;1.48;;
18048;SDS011;9149;47.002;8.604;2022-12-29T12:31:13;1.88;;;1.30;;
18048;SDS011;9149;47.002;8.604;2022-12-29T12:33:46;1.92;;;1.30;;
18048;SDS011;9149;47.002;8.604;2022-12-29T12:36:20;1.45;;;1.10;;
18048;SDS011;9149;47.002;8.604;2022-12-29T12:38:51;1.48;;;1.38;;
18048;SDS011;9149;47.002;8.604;2022-12-29T12:41:24;2.63;;;1.42;;
18048;SDS011;9149;47.002;8.604;2022-12-29T12:43:56;1.65;;;1.23;;
18048;SDS011;9149;47.002;8.604;2022-12-29T12:46:29;2.28;;;1.67;;
18048;SDS011;9149;47.002;8.604;2022-12-29T12:49:11;2.25;;;1.42;;
18048;SDS011;9149;47.002;8.604;2022-12-29T12:51:42;3.13;;;1.52;;
18048;SDS011;9149;47.002;8.604;2022-12-29T12:54:18;5.72;;;2.60;;
18048;SDS011;9149;47.002;8.604;2022-12-29T12:56:47;8.52;;;4.00;;
18048;SDS011;9149;47.002;8.604;2022-12-29T12:59:24;2.08;;;1.40;;
18048;SDS011;9149;47.002;8.604;2022-12-29T13:01:58;2.47;;;1.50;;
18048;SDS011;9149;47.002;8.604;2022-12-29T13:04:36;2.88;;;2.03;;
18048;SDS011;9149;47.002;8.604;2022-12-29T13:07:08;6.30;;;1.60;;
18048;SDS011;9149;47.002;8.604;2022-12-29T13:09:45;1.10;;;1.00;;
18048;SDS011;9149;47.002;8.604;2022-12-29T13:12:19;2.45;;;1.25;;
18048;SDS011;9149;47.002;8.604;2022-12-29T13:14:53;5.65;;;1.70;;
18048;SDS011;9149;47.002;8.604;2022-12-29T13:17:25;1.45;;;1.15;;
18048;SDS011;9149;47.002;8.604;2022-12-29T13:19:59;2.13;;;1.30;;
18048;SDS011;9149;47.002;8.604;2022-12-29T13:22:30;6.88;;;1.50;;
18048;SDS011;9149;47.002;8.604;2022-12-29T13:25:08;3.67;;;1.38;;
18048;SDS011;9149;47.002;8.604;2022-12-29T13:27:43;3.90;;;1.25;;
18048;SDS011;9149;47.002;8.604;2022-12-29T13:30:12;2.92;;;1.20;;
18048;SDS011;9149;47.002;8.604;2022-12-29T13:32:48;4.70;;;1.23;;
18048;SDS011;9149;47.002;8.604;2022-12-29T13:35:22;1.70;;;1.30;;
18048;SDS011;9149;47.002;8.604;2022-12-29T13:37:54;1.42;;;1.10;;
18048;SDS011;9149;47.002;8.604;2022-12-29T13:40:44;2.15;;;1.42;;
18048;SDS011;9149;47.002;8.604;2022-12-29T13:43:13;1.92;;;1.20;;
18048;SDS011;9149;47.002;8.604;2022-12-29T13:45:41;3.58;;;1.40;;
18048;SDS011;9149;47.002;8.604;2022-12-29T13:48:12;1.10;;;1.00;;
18048;SDS011;9149;47.002;8.604;2022-12-29T13:50:43;3.28;;;1.40;;
18048;SDS011;9149;47.002;8.604;2022-12-29T13:53:15;3.47;;;1.60;;
18048;SDS011;9149;47.002;8.604;2022-12-29T13:55:48;1.50;;;1.20;;
18048;SDS011;9149;47.002;8.604;2022-12-29T13:58:18;2.78;;;1.60;;
18048;SDS011;9149;47.002;8.604;2022-12-29T14:00:51;3.78;;;1.65;;
18048;SDS011;9149;47.002;8.604;2022-12-29T14:03:29;1.75;;;1.33;;
18048;SDS011;9149;47.002;8.604;2022-12-29T14:06:11;2.55;;;1.45;;
18048;SDS011;9149;47.002;8.604;2022-12-29T14:08:41;3.45;;;1.27;;
18048;SDS011;9149;47.002;8.604;2022-12-29T14:11:11;1.30;;;1.13;;
18048;SDS011;9149;47.002;8.604;2022-12-29T14:13:40;1.65;;;1.20;;
18048;SDS011;9149;47.002;8.604;2022-12-29T14:16:09;1.90;;;1.30;;
18048;SDS011;9149;47.002;8.604;2022-12-29T14:18:41;1.75;;;1.40;;
18048;SDS011;9149;47.002;8.604;2022-12-29T14:21:19;1.63;;;1.00;;
18048;SDS011;9149;47.002;8.604;2022-12-29T14:26:49;3.55;;;1.67;;
18048;SDS011;9149;47.002;8.604;2022-12-29T14:31:54;2.13;;;1.17;;
18048;SDS011;9149;47.002;8.604;2022-12-29T14:34:27;3.17;;;1.33;;
18048;SDS011;9149;47.002;8.604;2022-12-29T14:36:57;1.77;;;1.15;;
18048;SDS011;9149;47.002;8.604;2022-12-29T14:39:29;1.55;;;1.30;;
18048;SDS011;9149;47.002;8.604;2022-12-29T14:41:59;2.00;;;1.38;;
18048;SDS011;9149;47.002;8.604;2022-12-29T14:44:26;1.63;;;1.40;;
18048;SDS011;9149;47.002;8.604;2022-12-29T14:46:55;1.45;;;1.30;;
18048;SDS011;9149;47.002;8.604;2022-12-29T14:49:25;2.75;;;1.50;;
18048;SDS011;9149;47.002;8.604;2022-12-29T14:51:54;2.22;;;1.23;;
18048;SDS011;9149;47.002;8.604;2022-12-29T14:57:13;2.47;;;1.45;;
18048;SDS011;9149;47.002;8.604;2022-12-29T14:59:41;1.98;;;1.38;;
18048;SDS011;9149;47.002;8.604;2022-12-29T15:02:13;2.42;;;1.67;;
18048;SDS011;9149;47.002;8.604;2022-12-29T15:04:42;6.45;;;1.63;;
18048;SDS011;9149;47.002;8.604;2022-12-29T15:07:11;3.28;;;1.23;;
18048;SDS011;9149;47.002;8.604;2022-12-29T15:09:40;2.60;;;1.60;;
18048;SDS011;9149;47.002;8.604;2022-12-29T15:12:14;2.80;;;1.60;;
18048;SDS011;9149;47.002;8.604;2022-12-29T15:14:49;4.70;;;1.70;;
18048;SDS011;9149;47.002;8.604;2022-12-29T15:17:25;3.58;;;1.80;;
18048;SDS011;9149;47.002;8.604;2022-12-29T15:19:53;2.88;;;1.42;;
18048;SDS011;9149;47.002;8.604;2022-12-29T15:22:21;2.58;;;1.40;;
18048;SDS011;9149;47.002;8.604;2022-12-29T15:24:50;2.80;;;1.48;;
18048;SDS011;9149;47.002;8.604;2022-12-29T15:27:20;4.00;;;1.77;;
18048;SDS011;9149;47.002;8.604;2022-12-29T15:29:55;2.30;;;1.50;;
18048;SDS011;9149;47.002;8.604;2022-12-29T15:32:24;2.88;;;1.52;;
18048;SDS011;9149;47.002;8.604;2022-12-29T15:34:53;2.97;;;1.42;;
18048;SDS011;9149;47.002;8.604;2022-12-29T15:37:22;2.22;;;1.33;;
18048;SDS011;9149;47.002;8.604;2022-12-29T15:39:50;2.37;;;1.27;;
18048;SDS011;9149;47.002;8.604;2022-12-29T15:42:23;3.47;;;1.48;;
18048;SDS011;9149;47.002;8.604;2022-12-29T15:44:53;2.45;;;1.55;;